createdAt,value
2022-08-04T00:01:05.659Z,4.68
2022-08-04T00:03:49.472Z,5.10
2022-08-04T00:06:26.946Z,4.72
2022-08-04T00:09:01.324Z,4.40
2022-08-04T00:11:34.342Z,5.00
2022-08-04T00:14:10.095Z,4.78
2022-08-04T00:16:42.001Z,4.78
2022-08-04T00:19:14.021Z,5.43
2022-08-04T00:21:52.618Z,5.20
2022-08-04T00:24:23.204Z,5.60
2022-08-04T00:26:54.908Z,5.82
2022-08-04T00:29:23.367Z,5.85
2022-08-04T00:31:54.784Z,5.68
2022-08-04T00:34:30.092Z,5.70
2022-08-04T00:36:59.295Z,6.10
2022-08-04T00:39:28.985Z,6.25
2022-08-04T00:42:58.326Z,5.80
2022-08-04T00:46:17.329Z,5.47
2022-08-04T00:49:18.465Z,5.40
2022-08-04T00:52:32.673Z,5.25
2022-08-04T00:55:16.940Z,5.40
2022-08-04T00:58:07.163Z,5.90
2022-08-04T01:00:54.021Z,5.85
2022-08-04T01:03:45.486Z,5.72
2022-08-04T01:06:30.610Z,5.97
2022-08-04T01:09:31.634Z,5.55
2022-08-04T01:12:27.385Z,6.25
2022-08-04T01:15:07.782Z,6.45
2022-08-04T01:17:58.981Z,6.53
2022-08-04T01:20:31.007Z,6.45
2022-08-04T01:23:49.407Z,6.75
2022-08-04T01:26:53.866Z,6.55
2022-08-04T01:29:43.949Z,6.57
2022-08-04T01:32:26.084Z,7.20
2022-08-04T01:35:02.396Z,7.35
2022-08-04T01:37:51.919Z,7.18
2022-08-04T01:40:22.624Z,6.68
2022-08-04T01:42:54.720Z,6.47
2022-08-04T01:45:26.537Z,5.93
2022-08-04T01:47:58.196Z,6.10
2022-08-04T01:50:28.358Z,5.70
2022-08-04T01:52:57.567Z,5.20
2022-08-04T01:55:55.218Z,5.47
2022-08-04T01:58:20.730Z,5.63
2022-08-04T02:01:05.164Z,5.53
2022-08-04T02:04:20.920Z,6.20
2022-08-04T02:06:41.893Z,5.63
2022-08-04T02:09:18.326Z,6.03
2022-08-04T02:12:06.375Z,6.03
2022-08-04T02:14:51.926Z,5.32
2022-08-04T02:17:32.396Z,5.95
2022-08-04T02:20:09.611Z,6.50
2022-08-04T02:22:48.705Z,6.85
2022-08-04T02:25:25.352Z,7.60
2022-08-04T02:28:27.186Z,7.28
2022-08-04T02:31:09.494Z,7.43
2022-08-04T02:33:43.156Z,7.70
2022-08-04T02:36:17.800Z,7.35
2022-08-04T02:39:02.090Z,7.03
2022-08-04T02:41:32.330Z,6.68
2022-08-04T02:44:03.798Z,6.88
2022-08-04T02:46:34.776Z,7.13
2022-08-04T02:49:08.217Z,6.50
2022-08-04T02:51:41.460Z,6.65
2022-08-04T02:54:10.586Z,7.43
2022-08-04T02:56:40.700Z,6.72
2022-08-04T02:59:13.166Z,6.90
2022-08-04T03:01:57.448Z,7.03
2022-08-04T03:04:50.390Z,6.20
2022-08-04T03:08:06.252Z,6.63
2022-08-04T03:11:14.292Z,6.60
2022-08-04T03:14:22.983Z,6.38
2022-08-04T03:17:52.325Z,6.75
2022-08-04T03:21:07.987Z,6.63
2022-08-04T03:24:37.768Z,6.50
2022-08-04T03:27:31.410Z,6.65
2022-08-04T03:30:12.771Z,6.30
2022-08-04T03:33:35.336Z,6.20
2022-08-04T03:36:54.799Z,5.60
2022-08-04T03:39:57.592Z,5.88
2022-08-04T03:42:56.354Z,5.35
2022-08-04T03:46:04.250Z,5.70
2022-08-04T03:48:55.856Z,5.60
2022-08-04T03:52:01.277Z,5.70
2022-08-04T03:55:22.913Z,4.95
2022-08-04T03:58:40.031Z,5.47
2022-08-04T04:01:28.820Z,5.25
2022-08-04T04:04:42.179Z,5.30
2022-08-04T04:08:04.860Z,4.65
2022-08-04T04:11:13.192Z,4.40
2022-08-04T04:14:11.348Z,4.65
2022-08-04T04:17:05.248Z,4.97
2022-08-04T04:20:11.369Z,4.57
2022-08-04T04:23:11.717Z,4.20
2022-08-04T04:26:02.542Z,4.10
2022-08-04T04:29:09.474Z,3.95
2022-08-04T04:32:03.916Z,4.65
2022-08-04T04:34:47.747Z,4.05
2022-08-04T04:37:31.708Z,4.22
2022-08-04T04:40:17.668Z,4.30
2022-08-04T04:43:12.648Z,3.70
2022-08-04T04:45:52.242Z,3.80
2022-08-04T04:48:35.608Z,3.70
2022-08-04T04:51:15.292Z,3.65
2022-08-04T04:54:00.110Z,3.42
2022-08-04T04:56:42.546Z,4.05
2022-08-04T04:59:15.558Z,3.47
2022-08-04T05:02:07.921Z,3.00
2022-08-04T05:05:12.540Z,3.60
2022-08-04T05:08:43.457Z,3.25
2022-08-04T05:14:30.983Z,3.30
2022-08-04T05:15:02.817Z,3.60
2022-08-04T05:17:38.791Z,2.85
2022-08-04T05:20:12.201Z,3.08
2022-08-04T05:22:46.425Z,3.20
2022-08-04T05:25:23.866Z,3.30
2022-08-04T05:28:02.015Z,3.35
2022-08-04T05:30:35.940Z,3.00
2022-08-04T05:33:10.594Z,2.72
2022-08-04T05:36:08.895Z,2.80
2022-08-04T05:38:39.306Z,2.90
2022-08-04T05:41:09.846Z,2.80
2022-08-04T05:43:43.718Z,3.20
2022-08-04T05:46:13.634Z,2.97
2022-08-04T05:48:43.627Z,3.08
2022-08-04T05:51:12.884Z,3.00
2022-08-04T05:53:44.460Z,2.67
2022-08-04T05:56:15.379Z,2.83
2022-08-04T05:58:47.503Z,3.08
2022-08-04T06:01:18.334Z,2.80
2022-08-04T06:03:48.169Z,3.00
2022-08-04T06:06:18.582Z,2.90
2022-08-04T06:08:46.996Z,2.47
2022-08-04T06:11:16.662Z,2.63
2022-08-04T06:13:52.765Z,2.72
2022-08-04T06:16:29.901Z,2.90
2022-08-04T06:20:00.116Z,2.33
2022-08-04T06:21:57.786Z,2.47
2022-08-04T06:24:30.035Z,2.45
2022-08-04T06:29:34.609Z,2.40
2022-08-04T06:32:30.443Z,2.25
2022-08-04T06:35:04.764Z,2.30
2022-08-04T06:37:41.822Z,2.30
2022-08-04T06:40:31.839Z,2.60
2022-08-04T06:43:02.730Z,2.22
2022-08-04T06:45:35.434Z,2.35
2022-08-04T06:48:06.726Z,2.20
2022-08-04T06:51:28.658Z,2.45
2022-08-04T06:53:27.466Z,1.98
2022-08-04T06:55:57.651Z,2.58
2022-08-04T06:58:28.216Z,2.33
2022-08-04T07:01:02.058Z,2.42
2022-08-04T07:03:32.029Z,2.47
2022-08-04T07:06:05.756Z,2.47
2022-08-04T07:08:36.599Z,2.40
2022-08-04T07:11:07.079Z,2.35
2022-08-04T07:13:37.721Z,2.85
2022-08-04T07:16:11.372Z,2.60
2022-08-04T07:18:39.789Z,2.30
2022-08-04T07:21:08.916Z,2.30
2022-08-04T07:23:38.783Z,2.42
2022-08-04T07:26:12.709Z,2.28
2022-08-04T07:28:42.781Z,1.85
2022-08-04T07:31:34.057Z,1.98
2022-08-04T07:34:17.414Z,2.05
2022-08-04T07:36:55.385Z,2.30
2022-08-04T07:39:28.228Z,2.20
2022-08-04T07:42:01.114Z,2.30
2022-08-04T07:44:31.818Z,2.10
2022-08-04T07:47:02.914Z,2.00
2022-08-04T07:49:55.274Z,2.53
2022-08-04T07:52:20.964Z,2.35
2022-08-04T07:54:50.552Z,2.28
2022-08-04T07:57:40.081Z,2.05
2022-08-04T08:00:11.991Z,2.33
2022-08-04T08:02:42.747Z,2.35
2022-08-04T08:05:14.785Z,2.40
2022-08-04T08:07:50.784Z,1.90
2022-08-04T08:10:23.324Z,2.03
2022-08-04T08:12:52.948Z,1.90
2022-08-04T08:15:22.672Z,1.85
2022-08-04T08:17:59.446Z,2.30
2022-08-04T08:20:31.223Z,2.22
2022-08-04T08:23:02.012Z,1.90
2022-08-04T08:25:33.186Z,2.13
2022-08-04T08:28:03.553Z,1.90
2022-08-04T08:30:33.335Z,2.13
2022-08-04T08:33:08.862Z,2.40
2022-08-04T08:35:53.814Z,1.70
2022-08-04T08:38:39.515Z,1.80
2022-08-04T08:41:52.039Z,1.90
2022-08-04T08:45:20.613Z,2.13
2022-08-04T08:48:14.134Z,1.70
2022-08-04T08:51:24.941Z,1.80
2022-08-04T08:54:36.421Z,1.88
2022-08-04T08:57:26.027Z,1.43
2022-08-04T09:00:10.810Z,1.70
2022-08-04T09:03:33.542Z,1.70
2022-08-04T09:06:19.934Z,2.03
2022-08-04T09:09:30.557Z,1.40
2022-08-04T09:12:13.112Z,1.60
2022-08-04T09:14:48.829Z,1.90
2022-08-04T09:17:28.491Z,1.60
2022-08-04T09:20:06.979Z,1.77
2022-08-04T09:22:44.982Z,1.50
2022-08-04T09:25:21.608Z,1.35
2022-08-04T09:27:55.899Z,1.50
2022-08-04T09:30:33.740Z,1.23
2022-08-04T09:33:22.611Z,1.80
2022-08-04T09:36:26.681Z,1.50
2022-08-04T09:39:12.994Z,1.40
2022-08-04T09:42:00.120Z,1.35
2022-08-04T09:44:52.612Z,1.65
2022-08-04T09:47:39.103Z,1.55
2022-08-04T09:50:24.533Z,1.48
2022-08-04T09:53:06.723Z,1.60
2022-08-04T09:55:53.665Z,1.50
2022-08-04T09:58:40.688Z,1.30
2022-08-04T10:01:14.612Z,1.55
2022-08-04T10:03:49.850Z,1.40
2022-08-04T10:06:42.570Z,1.42
2022-08-04T10:09:32.030Z,1.50
2022-08-04T10:12:23.033Z,1.40
2022-08-04T10:14:59.268Z,1.20
2022-08-04T10:18:18.625Z,1.35
2022-08-04T10:21:19.199Z,1.70
2022-08-04T10:24:32.118Z,1.50
2022-08-04T10:27:10.895Z,1.70
2022-08-04T10:29:46.602Z,1.75
2022-08-04T10:32:22.370Z,1.60
2022-08-04T10:35:07.369Z,1.40
2022-08-04T10:37:59.861Z,1.88
2022-08-04T10:40:37.433Z,1.70
2022-08-04T10:43:20.484Z,1.65
2022-08-04T10:45:57.909Z,1.67
2022-08-04T10:48:37.321Z,1.40
2022-08-04T10:51:21.338Z,1.50
2022-08-04T10:53:58.343Z,1.35
2022-08-04T10:56:39.042Z,1.60
2022-08-04T10:59:14.203Z,1.50
2022-08-04T11:01:59.599Z,1.40
2022-08-04T11:04:43.474Z,1.45
2022-08-04T11:07:13.398Z,1.15
2022-08-04T11:09:43.958Z,1.40
2022-08-04T11:12:18.975Z,1.13
2022-08-04T11:14:57.097Z,1.10
2022-08-04T11:17:33.611Z,1.02
2022-08-04T11:23:11.701Z,1.13
2022-08-04T11:25:52.444Z,1.20
2022-08-04T11:28:34.365Z,1.43
2022-08-04T11:31:08.950Z,1.05
2022-08-04T11:33:45.256Z,1.17
2022-08-04T11:36:23.495Z,1.40
2022-08-04T11:39:00.362Z,1.45
2022-08-04T11:41:49.340Z,1.70
2022-08-04T11:44:27.900Z,1.67
2022-08-04T11:47:03.548Z,1.60
2022-08-04T11:49:56.008Z,1.42
2022-08-04T11:52:28.053Z,1.75
2022-08-04T11:54:58.717Z,1.75
2022-08-04T11:57:35.749Z,1.90
2022-08-04T12:00:12.373Z,1.90
2022-08-04T12:03:16.430Z,1.90
2022-08-04T12:05:57.292Z,2.30
2022-08-04T12:08:45.553Z,2.00
2022-08-04T12:11:26.315Z,2.42
2022-08-04T12:14:11.037Z,2.33
2022-08-04T12:16:53.759Z,2.10
2022-08-04T12:19:43.068Z,2.17
2022-08-04T12:22:29.888Z,2.17
2022-08-04T12:25:04.916Z,2.28
2022-08-04T12:27:37.821Z,2.10
2022-08-04T12:31:01.212Z,2.05
2022-08-04T12:33:05.329Z,2.30
2022-08-04T12:35:57.484Z,2.20
2022-08-04T12:38:34.648Z,2.50
2022-08-04T12:41:04.160Z,2.50
2022-08-04T12:43:40.185Z,2.45
2022-08-04T12:46:11.104Z,2.17
2022-08-04T12:48:45.778Z,2.30
2022-08-04T12:52:05.731Z,2.40
2022-08-04T12:54:05.189Z,2.50
2022-08-04T12:56:34.054Z,2.42
2022-08-04T12:59:06.393Z,2.30
2022-08-04T13:02:09.882Z,2.08
2022-08-04T13:04:42.622Z,2.40
2022-08-04T13:07:20.896Z,2.55
2022-08-04T13:09:50.738Z,2.38
2022-08-04T13:12:31.967Z,2.33
2022-08-04T13:15:17.874Z,2.42
2022-08-04T13:17:54.026Z,2.50
2022-08-04T13:20:31.251Z,2.50
2022-08-04T13:23:05.622Z,2.50
2022-08-04T13:26:42.431Z,2.42
2022-08-04T13:28:45.036Z,2.90
2022-08-04T13:31:17.497Z,2.33
2022-08-04T13:33:48.035Z,2.40
2022-08-04T13:36:19.314Z,2.70
2022-08-04T13:38:52.667Z,2.42
2022-08-04T13:41:22.432Z,2.67
2022-08-04T13:44:18.251Z,2.40
2022-08-04T13:46:51.330Z,2.67
2022-08-04T13:49:42.790Z,2.47
2022-08-04T13:52:11.890Z,2.63
2022-08-04T13:54:43.581Z,2.53
2022-08-04T13:59:46.759Z,2.50
2022-08-04T14:02:32.944Z,2.67
2022-08-04T14:05:18.366Z,2.40
2022-08-04T14:07:55.725Z,2.53
2022-08-04T14:10:24.866Z,2.60
2022-08-04T14:12:54.567Z,2.60
2022-08-04T14:16:03.041Z,2.28
2022-08-04T14:18:27.455Z,2.40
2022-08-04T14:21:09.444Z,2.55
2022-08-04T14:23:51.712Z,2.50
2022-08-04T14:26:33.863Z,2.42
2022-08-04T14:29:27.759Z,2.38
2022-08-04T14:32:06.196Z,2.60
2022-08-04T14:34:51.325Z,3.03
2022-08-04T14:37:22.574Z,2.85
2022-08-04T14:40:17.404Z,2.80
2022-08-04T14:42:54.473Z,3.25
2022-08-04T14:45:33.868Z,2.70
2022-08-04T14:48:03.662Z,3.15
2022-08-04T14:50:38.831Z,3.70
2022-08-04T14:53:14.186Z,3.08
2022-08-04T14:55:49.274Z,3.20
2022-08-04T14:58:35.957Z,2.80
2022-08-04T15:01:11.000Z,3.35
2022-08-04T15:03:50.057Z,3.00
2022-08-04T15:06:23.933Z,3.30
2022-08-04T15:08:54.130Z,2.80
2022-08-04T15:11:25.092Z,2.80
2022-08-04T15:13:53.938Z,3.20
2022-08-04T15:16:24.040Z,3.22
2022-08-04T15:18:52.692Z,3.42
2022-08-04T15:21:24.258Z,3.50
2022-08-04T15:23:52.727Z,3.40
2022-08-04T15:26:32.179Z,2.80
2022-08-04T15:29:07.735Z,3.13
2022-08-04T15:32:05.880Z,2.70
2022-08-04T15:34:29.157Z,3.00
2022-08-04T15:37:01.706Z,3.47
2022-08-04T15:39:45.004Z,2.78
2022-08-04T15:42:22.975Z,2.47
2022-08-04T15:45:22.224Z,4.57
2022-08-04T15:48:29.007Z,2.83
2022-08-04T15:51:05.842Z,2.83
2022-08-04T15:54:23.340Z,2.42
2022-08-04T15:57:02.719Z,2.40
2022-08-04T16:00:11.293Z,2.45
2022-08-04T16:02:44.675Z,2.53
2022-08-04T16:05:39.365Z,2.50
2022-08-04T16:08:16.593Z,2.50
2022-08-04T16:10:50.679Z,2.72
2022-08-04T16:13:22.485Z,2.50
2022-08-04T16:15:54.565Z,2.92
2022-08-04T16:18:41.264Z,2.70
2022-08-04T16:21:24.845Z,3.08
2022-08-04T16:24:19.158Z,3.10
2022-08-04T16:26:56.502Z,3.20
2022-08-04T16:29:37.836Z,3.20
2022-08-04T16:32:26.590Z,3.10
2022-08-04T16:35:00.188Z,2.60
2022-08-04T16:37:34.959Z,2.60
2022-08-04T16:40:36.893Z,2.80
2022-08-04T16:43:11.442Z,3.20
2022-08-04T16:45:54.864Z,2.80
2022-08-04T16:48:26.735Z,2.80
2022-08-04T16:51:04.602Z,3.17
2022-08-04T16:53:52.288Z,2.72
2022-08-04T16:56:33.546Z,2.58
2022-08-04T16:59:09.219Z,2.80
2022-08-04T17:01:38.532Z,2.75
2022-08-04T17:04:08.404Z,3.20
2022-08-04T17:06:39.663Z,3.20
2022-08-04T17:09:14.440Z,2.93
2022-08-04T17:11:45.113Z,3.33
2022-08-04T17:14:14.357Z,3.95
2022-08-04T17:16:44.311Z,2.80
2022-08-04T17:19:24.392Z,8.32
2022-08-04T17:22:05.319Z,8.93
2022-08-04T17:24:36.874Z,3.53
2022-08-04T17:28:19.683Z,3.88
2022-08-04T17:29:56.410Z,2.97
2022-08-04T17:32:25.233Z,2.63
2022-08-04T17:34:57.412Z,2.63
2022-08-04T17:37:38.017Z,2.80
2022-08-04T17:40:13.498Z,3.08
2022-08-04T17:48:09.967Z,2.90
2022-08-04T17:50:43.809Z,2.53
2022-08-04T17:53:13.183Z,2.45
2022-08-04T17:55:46.967Z,2.55
2022-08-04T17:58:23.965Z,2.50
2022-08-04T18:03:51.872Z,2.78
2022-08-04T18:06:25.716Z,2.35
2022-08-04T18:08:59.255Z,2.92
2022-08-04T18:11:54.980Z,2.20
2022-08-04T18:14:28.629Z,2.10
2022-08-04T18:16:57.558Z,2.00
2022-08-04T18:19:25.825Z,2.13
2022-08-04T18:22:01.295Z,1.70
2022-08-04T18:27:09.499Z,1.85
2022-08-04T18:29:39.299Z,1.67
2022-08-04T18:32:09.261Z,1.80
2022-08-04T18:34:40.710Z,1.80
2022-08-04T18:37:32.116Z,1.52
2022-08-04T18:40:10.665Z,1.80
2022-08-04T18:42:48.186Z,1.80
2022-08-04T18:45:16.570Z,1.90
2022-08-04T18:47:54.537Z,2.15
2022-08-04T18:51:00.449Z,1.83
2022-08-04T18:53:17.592Z,2.00
2022-08-04T18:55:58.004Z,1.92
2022-08-04T18:58:27.992Z,1.90
2022-08-04T19:01:00.254Z,2.00
2022-08-04T19:03:33.153Z,1.80
2022-08-04T19:06:03.188Z,1.80
2022-08-04T19:08:35.555Z,1.73
2022-08-04T19:11:37.001Z,1.80
2022-08-04T19:13:59.151Z,1.67
2022-08-04T19:16:29.818Z,1.60
2022-08-04T19:18:58.649Z,1.70
2022-08-04T19:24:32.843Z,1.85
2022-08-04T19:27:07.516Z,1.85
2022-08-04T19:29:41.331Z,1.83
2022-08-04T19:32:13.863Z,1.95
2022-08-04T19:34:46.251Z,2.15
2022-08-04T19:37:57.756Z,2.25
2022-08-04T19:40:10.265Z,1.80
2022-08-04T19:42:40.378Z,1.70
2022-08-04T19:45:09.874Z,1.90
2022-08-04T19:48:15.959Z,1.80
2022-08-04T19:50:32.739Z,2.05
2022-08-04T19:53:01.970Z,2.20
2022-08-04T19:55:49.798Z,1.85
2022-08-04T19:58:21.919Z,1.77
2022-08-04T20:00:55.504Z,2.00
2022-08-04T20:04:08.302Z,2.33
2022-08-04T20:06:12.948Z,1.83
2022-08-04T20:08:48.609Z,2.08
2022-08-04T20:11:20.616Z,2.15
2022-08-04T20:16:30.215Z,2.28
2022-08-04T20:19:03.892Z,2.50
2022-08-04T20:21:53.744Z,2.10
2022-08-04T20:24:39.944Z,2.97
2022-08-04T20:27:21.750Z,2.50
2022-08-04T20:29:55.390Z,2.95
2022-08-04T20:32:27.295Z,2.80
2022-08-04T20:34:57.800Z,2.83
2022-08-04T20:38:00.066Z,2.90
2022-08-04T20:40:16.246Z,3.05
2022-08-04T20:42:46.410Z,3.15
2022-08-04T20:45:16.855Z,3.47
2022-08-04T20:47:50.257Z,3.03
2022-08-04T20:50:29.646Z,3.38
2022-08-04T20:52:58.434Z,3.75
2022-08-04T20:55:29.756Z,4.25
2022-08-04T20:58:03.367Z,3.80
2022-08-04T21:00:32.440Z,4.25
2022-08-04T21:03:00.996Z,3.80
2022-08-04T21:05:31.654Z,4.80
2022-08-04T21:08:01.881Z,4.20
2022-08-04T21:10:30.539Z,4.50
2022-08-04T21:13:00.743Z,5.00
2022-08-04T21:15:58.317Z,5.10
2022-08-04T21:18:17.294Z,5.97
2022-08-04T21:20:57.450Z,6.40
2022-08-04T21:23:25.713Z,6.00
2022-08-04T21:26:01.183Z,6.55
2022-08-04T21:28:32.097Z,5.82
2022-08-04T21:31:02.452Z,6.35
2022-08-04T21:33:49.801Z,6.25
2022-08-04T21:36:20.266Z,6.45
2022-08-04T21:42:09.986Z,6.43
2022-08-04T21:44:27.502Z,5.75
2022-08-04T21:46:56.003Z,6.25
2022-08-04T21:49:24.299Z,5.97
2022-08-04T21:54:42.386Z,6.10
2022-08-04T21:57:13.311Z,6.43
2022-08-04T21:59:46.010Z,5.95
2022-08-04T22:02:14.562Z,6.30
2022-08-04T22:04:44.321Z,5.80
2022-08-04T22:07:12.627Z,5.75
2022-08-04T22:12:31.419Z,5.72
2022-08-04T22:15:22.758Z,6.40
2022-08-04T22:17:54.228Z,6.07
2022-08-04T22:20:28.086Z,5.68
2022-08-04T22:23:05.996Z,5.53
2022-08-04T22:25:37.782Z,6.00
2022-08-04T22:28:07.956Z,5.67
2022-08-04T22:30:38.860Z,5.13
2022-08-04T22:33:16.685Z,4.55
2022-08-04T22:35:49.681Z,5.45
2022-08-04T22:38:24.182Z,4.95
2022-08-04T22:40:59.170Z,5.07
2022-08-04T22:43:32.288Z,4.72
2022-08-04T22:46:05.390Z,4.00
2022-08-04T22:48:36.825Z,4.15
2022-08-04T22:51:07.732Z,4.22
2022-08-04T22:53:37.203Z,4.28
2022-08-04T22:56:09.873Z,3.92
2022-08-04T22:58:45.874Z,4.07
2022-08-04T23:01:21.104Z,4.15
2022-08-04T23:03:55.880Z,3.90
2022-08-04T23:06:28.605Z,3.40
2022-08-04T23:08:59.308Z,3.40
2022-08-04T23:11:34.511Z,3.50
2022-08-04T23:14:05.365Z,3.35
2022-08-04T23:16:40.896Z,2.97
2022-08-04T23:19:12.108Z,3.03
2022-08-04T23:21:47.854Z,2.92
2022-08-04T23:24:30.159Z,3.10
2022-08-04T23:26:59.229Z,2.97
2022-08-04T23:29:27.736Z,3.05
2022-08-04T23:32:20.176Z,2.70
2022-08-04T23:34:48.998Z,2.90
2022-08-04T23:37:17.287Z,2.72
2022-08-04T23:40:14.417Z,2.40
2022-08-04T23:42:33.881Z,2.92
2022-08-04T23:45:03.360Z,2.80
2022-08-04T23:48:15.422Z,2.47
2022-08-04T23:50:21.337Z,2.53
2022-08-04T23:52:49.624Z,2.80
2022-08-04T23:55:19.178Z,2.53
2022-08-04T23:58:05.631Z,2.33
